sensor_id;sensor_type;location;lat;lon;timestamp;pressure;altitude;pressure_sealevel;temperature;humidity
77469;BME280;68840;50.272;12.818;2023-05-16T00:00:08;95550;;;10.5;63.9
77469;BME280;68840;50.272;12.818;2023-05-16T00:02:06;95551;;;10.5;64.2
77469;BME280;68840;50.272;12.818;2023-05-16T00:04:06;95551;;;10.5;64.1
77469;BME280;68840;50.272;12.818;2023-05-16T00:06:05;95550;;;10.5;63.9
77469;BME280;68840;50.272;12.818;2023-05-16T00:08:05;95553;;;10.5;63.8
77469;BME280;68840;50.272;12.818;2023-05-16T00:10:06;95557;;;10.5;62.9
77469;BME280;68840;50.272;12.818;2023-05-16T00:12:06;95560;;;10.4;64.1
77469;BME280;68840;50.272;12.818;2023-05-16T00:14:06;95561;;;10.4;63.4
77469;BME280;68840;50.272;12.818;2023-05-16T00:16:05;95559;;;10.3;62.5
77469;BME280;68840;50.272;12.818;2023-05-16T00:18:05;95557;;;10.3;63.0
77469;BME280;68840;50.272;12.818;2023-05-16T00:20:08;95555;;;10.2;64.3
77469;BME280;68840;50.272;12.818;2023-05-16T00:22:05;95555;;;10.2;64.8
77469;BME280;68840;50.272;12.818;2023-05-16T00:24:06;95558;;;10.2;64.9
77469;BME280;68840;50.272;12.818;2023-05-16T00:26:05;95560;;;10.2;65.1
77469;BME280;68840;50.272;12.818;2023-05-16T00:28:05;95563;;;10.1;66.0
77469;BME280;68840;50.272;12.818;2023-05-16T00:30:06;95564;;;10.1;66.0
77469;BME280;68840;50.272;12.818;2023-05-16T00:32:07;95565;;;10.1;65.8
77469;BME280;68840;50.272;12.818;2023-05-16T00:34:05;95563;;;10.1;66.5
77469;BME280;68840;50.272;12.818;2023-05-16T00:36:05;95561;;;10.1;66.7
77469;BME280;68840;50.272;12.818;2023-05-16T00:38:05;95562;;;10.0;66.9
77469;BME280;68840;50.272;12.818;2023-05-16T00:40:06;95563;;;10.0;66.8
77469;BME280;68840;50.272;12.818;2023-05-16T00:42:05;95564;;;10.0;66.8
77469;BME280;68840;50.272;12.818;2023-05-16T00:44:05;95570;;;10.0;67.2
77469;BME280;68840;50.272;12.818;2023-05-16T00:46:06;95568;;;10.0;67.1
77469;BME280;68840;50.272;12.818;2023-05-16T00:48:05;95570;;;10.0;67.1
77469;BME280;68840;50.272;12.818;2023-05-16T00:50:06;95570;;;10.0;67.3
77469;BME280;68840;50.272;12.818;2023-05-16T00:52:05;95572;;;9.9;67.2
77469;BME280;68840;50.272;12.818;2023-05-16T00:54:05;95571;;;9.9;67.0
77469;BME280;68840;50.272;12.818;2023-05-16T00:56:05;95570;;;9.9;67.4
77469;BME280;68840;50.272;12.818;2023-05-16T00:58:05;95569;;;9.9;67.5
77469;BME280;68840;50.272;12.818;2023-05-16T01:00:09;95569;;;9.9;67.4
77469;BME280;68840;50.272;12.818;2023-05-16T01:02:05;95567;;;9.8;67.6
77469;BME280;68840;50.272;12.818;2023-05-16T01:04:06;95569;;;9.8;67.8
77469;BME280;68840;50.272;12.818;2023-05-16T01:06:06;95569;;;9.8;68.0
77469;BME280;68840;50.272;12.818;2023-05-16T01:08:05;95573;;;9.8;68.0
77469;BME280;68840;50.272;12.818;2023-05-16T01:10:06;95571;;;9.8;68.0
77469;BME280;68840;50.272;12.818;2023-05-16T01:12:12;95571;;;9.7;68.5
77469;BME280;68840;50.272;12.818;2023-05-16T01:14:13;95572;;;9.7;68.6
77469;BME280;68840;50.272;12.818;2023-05-16T01:16:09;95571;;;9.7;68.8
77469;BME280;68840;50.272;12.818;2023-05-16T01:18:17;95568;;;9.7;68.2
77469;BME280;68840;50.272;12.818;2023-05-16T01:20:16;95568;;;9.7;67.9
77469;BME280;68840;50.272;12.818;2023-05-16T01:22:14;95566;;;9.6;68.3
77469;BME280;68840;50.272;12.818;2023-05-16T01:24:13;95563;;;9.6;68.8
77469;BME280;68840;50.272;12.818;2023-05-16T01:26:16;95563;;;9.6;68.5
77469;BME280;68840;50.272;12.818;2023-05-16T01:28:06;95563;;;9.6;68.6
77469;BME280;68840;50.272;12.818;2023-05-16T01:30:15;95560;;;9.5;68.6
77469;BME280;68840;50.272;12.818;2023-05-16T01:32:06;95561;;;9.5;68.7
77469;BME280;68840;50.272;12.818;2023-05-16T01:34:05;95560;;;9.5;69.3
77469;BME280;68840;50.272;12.818;2023-05-16T01:36:12;95560;;;9.4;69.7
77469;BME280;68840;50.272;12.818;2023-05-16T01:38:11;95561;;;9.4;69.6
77469;BME280;68840;50.272;12.818;2023-05-16T01:40:11;95561;;;9.4;69.6
77469;BME280;68840;50.272;12.818;2023-05-16T01:42:09;95560;;;9.4;69.5
77469;BME280;68840;50.272;12.818;2023-05-16T01:44:11;95561;;;9.4;69.2
77469;BME280;68840;50.272;12.818;2023-05-16T01:46:09;95562;;;9.4;69.5
77469;BME280;68840;50.272;12.818;2023-05-16T01:48:08;95562;;;9.3;69.4
77469;BME280;68840;50.272;12.818;2023-05-16T01:50:09;95562;;;9.3;69.7
77469;BME280;68840;50.272;12.818;2023-05-16T01:52:10;95564;;;9.3;70.3
77469;BME280;68840;50.272;12.818;2023-05-16T01:54:11;95566;;;9.3;70.5
77469;BME280;68840;50.272;12.818;2023-05-16T01:56:12;95569;;;9.2;70.8
77469;BME280;68840;50.272;12.818;2023-05-16T01:58:06;95571;;;9.2;71.1
77469;BME280;68840;50.272;12.818;2023-05-16T02:00:07;95575;;;9.2;71.1
77469;BME280;68840;50.272;12.818;2023-05-16T02:02:05;95575;;;9.2;71.4
77469;BME280;68840;50.272;12.818;2023-05-16T02:04:05;95578;;;9.2;71.1
77469;BME280;68840;50.272;12.818;2023-05-16T02:06:05;95579;;;9.2;71.6
77469;BME280;68840;50.272;12.818;2023-05-16T02:08:06;95584;;;9.2;71.6
77469;BME280;68840;50.272;12.818;2023-05-16T02:10:06;95586;;;9.2;71.8
77469;BME280;68840;50.272;12.818;2023-05-16T02:12:06;95588;;;9.1;71.9
77469;BME280;68840;50.272;12.818;2023-05-16T02:14:05;95588;;;9.1;70.8
77469;BME280;68840;50.272;12.818;2023-05-16T02:16:05;95588;;;9.1;71.6
77469;BME280;68840;50.272;12.818;2023-05-16T02:18:06;95589;;;9.1;71.8
77469;BME280;68840;50.272;12.818;2023-05-16T02:20:09;95593;;;9.1;71.9
77469;BME280;68840;50.272;12.818;2023-05-16T02:22:05;95592;;;9.1;70.9
77469;BME280;68840;50.272;12.818;2023-05-16T02:24:05;95593;;;9.1;71.1
77469;BME280;68840;50.272;12.818;2023-05-16T02:26:05;95595;;;9.1;71.2
77469;BME280;68840;50.272;12.818;2023-05-16T02:28:05;95597;;;9.1;71.4
77469;BME280;68840;50.272;12.818;2023-05-16T02:30:06;95596;;;9.0;71.8
77469;BME280;68840;50.272;12.818;2023-05-16T02:32:06;95597;;;9.0;71.9
77469;BME280;68840;50.272;12.818;2023-05-16T02:34:06;95597;;;9.0;71.9
77469;BME280;68840;50.272;12.818;2023-05-16T02:36:06;95597;;;9.0;71.6
77469;BME280;68840;50.272;12.818;2023-05-16T02:38:05;95596;;;9.0;71.4
77469;BME280;68840;50.272;12.818;2023-05-16T02:40:06;95597;;;9.0;71.8
77469;BME280;68840;50.272;12.818;2023-05-16T02:42:06;95595;;;9.0;70.2
77469;BME280;68840;50.272;12.818;2023-05-16T02:44:05;95594;;;9.0;71.2
77469;BME280;68840;50.272;12.818;2023-05-16T02:46:19;95593;;;9.0;69.0
77469;BME280;68840;50.272;12.818;2023-05-16T02:48:06;95591;;;9.0;69.6
77469;BME280;68840;50.272;12.818;2023-05-16T02:50:06;95591;;;8.9;71.8
77469;BME280;68840;50.272;12.818;2023-05-16T02:52:06;95594;;;8.9;72.3
77469;BME280;68840;50.272;12.818;2023-05-16T02:54:08;95595;;;8.9;73.3
77469;BME280;68840;50.272;12.818;2023-05-16T02:56:06;95600;;;8.9;73.2
77469;BME280;68840;50.272;12.818;2023-05-16T02:58:05;95600;;;8.9;72.9
77469;BME280;68840;50.272;12.818;2023-05-16T03:00:06;95600;;;8.9;72.9
77469;BME280;68840;50.272;12.818;2023-05-16T03:02:05;95600;;;8.9;72.2
77469;BME280;68840;50.272;12.818;2023-05-16T03:04:05;95601;;;8.9;72.5
77469;BME280;68840;50.272;12.818;2023-05-16T03:06:05;95599;;;8.9;73.1
77469;BME280;68840;50.272;12.818;2023-05-16T03:08:05;95598;;;8.9;73.1
77469;BME280;68840;50.272;12.818;2023-05-16T03:10:06;95594;;;8.9;72.3
77469;BME280;68840;50.272;12.818;2023-05-16T03:12:06;95591;;;8.8;69.7
77469;BME280;68840;50.272;12.818;2023-05-16T03:14:05;95591;;;8.8;71.5
77469;BME280;68840;50.272;12.818;2023-05-16T03:16:05;95591;;;8.8;72.5
77469;BME280;68840;50.272;12.818;2023-05-16T03:18:06;95592;;;8.8;71.4
77469;BME280;68840;50.272;12.818;2023-05-16T03:20:08;95591;;;8.7;68.2
77469;BME280;68840;50.272;12.818;2023-05-16T03:22:05;95591;;;8.6;70.0
77469;BME280;68840;50.272;12.818;2023-05-16T03:24:07;95593;;;8.6;70.9
77469;BME280;68840;50.272;12.818;2023-05-16T03:26:06;95597;;;8.5;70.2
77469;BME280;68840;50.272;12.818;2023-05-16T03:28:06;95600;;;8.5;71.9
77469;BME280;68840;50.272;12.818;2023-05-16T03:30:08;95608;;;8.5;71.6
77469;BME280;68840;50.272;12.818;2023-05-16T03:32:05;95611;;;8.4;71.7
77469;BME280;68840;50.272;12.818;2023-05-16T03:34:05;95616;;;8.4;72.6
77469;BME280;68840;50.272;12.818;2023-05-16T03:36:06;95613;;;8.4;73.6
77469;BME280;68840;50.272;12.818;2023-05-16T03:38:05;95614;;;8.5;74.0
77469;BME280;68840;50.272;12.818;2023-05-16T03:40:07;95614;;;8.5;74.0
77469;BME280;68840;50.272;12.818;2023-05-16T03:42:06;95618;;;8.5;74.1
77469;BME280;68840;50.272;12.818;2023-05-16T03:44:05;95621;;;8.5;74.2
77469;BME280;68840;50.272;12.818;2023-05-16T03:46:05;95620;;;8.5;74.4
77469;BME280;68840;50.272;12.818;2023-05-16T03:48:05;95620;;;8.4;74.4
77469;BME280;68840;50.272;12.818;2023-05-16T03:50:06;95619;;;8.4;74.3
77469;BME280;68840;50.272;12.818;2023-05-16T03:52:06;95621;;;8.4;74.4
77469;BME280;68840;50.272;12.818;2023-05-16T03:54:05;95619;;;8.4;74.5
77469;BME280;68840;50.272;12.818;2023-05-16T03:56:05;95620;;;8.4;74.3
77469;BME280;68840;50.272;12.818;2023-05-16T03:58:06;95624;;;8.4;74.5
77469;BME280;68840;50.272;12.818;2023-05-16T04:00:07;95626;;;8.4;73.0
77469;BME280;68840;50.272;12.818;2023-05-16T04:02:05;95626;;;8.4;71.2
77469;BME280;68840;50.272;12.818;2023-05-16T04:04:06;95627;;;8.4;72.4
77469;BME280;68840;50.272;12.818;2023-05-16T04:06:06;95632;;;8.4;71.9
77469;BME280;68840;50.272;12.818;2023-05-16T04:08:05;95634;;;8.4;71.5
77469;BME280;68840;50.272;12.818;2023-05-16T04:10:06;95635;;;8.4;70.4
77469;BME280;68840;50.272;12.818;2023-05-16T04:12:06;95641;;;8.4;70.6
77469;BME280;68840;50.272;12.818;2023-05-16T04:14:06;95645;;;8.4;70.1
77469;BME280;68840;50.272;12.818;2023-05-16T04:16:06;95649;;;8.4;70.1
77469;BME280;68840;50.272;12.818;2023-05-16T04:18:05;95651;;;8.4;71.3
77469;BME280;68840;50.272;12.818;2023-05-16T04:20:06;95653;;;8.4;71.7
77469;BME280;68840;50.272;12.818;2023-05-16T04:22:06;95651;;;8.5;71.9
77469;BME280;68840;50.272;12.818;2023-05-16T04:24:06;95650;;;8.6;71.5
77469;BME280;68840;50.272;12.818;2023-05-16T04:26:05;95649;;;8.7;71.1
77469;BME280;68840;50.272;12.818;2023-05-16T04:28:05;95650;;;8.9;71.5
77469;BME280;68840;50.272;12.818;2023-05-16T04:30:06;95645;;;9.0;71.9
77469;BME280;68840;50.272;12.818;2023-05-16T04:32:06;95643;;;9.2;72.0
77469;BME280;68840;50.272;12.818;2023-05-16T04:34:05;95642;;;9.4;71.7
77469;BME280;68840;50.272;12.818;2023-05-16T04:36:05;95642;;;9.5;71.2
77469;BME280;68840;50.272;12.818;2023-05-16T04:38:05;95646;;;9.7;70.6
77469;BME280;68840;50.272;12.818;2023-05-16T04:40:06;95649;;;9.9;68.3
77469;BME280;68840;50.272;12.818;2023-05-16T04:42:05;95648;;;10.1;67.6
77469;BME280;68840;50.272;12.818;2023-05-16T04:44:05;95650;;;10.2;66.5
77469;BME280;68840;50.272;12.818;2023-05-16T04:46:06;95655;;;10.3;66.3
77469;BME280;68840;50.272;12.818;2023-05-16T04:48:06;95659;;;10.4;65.7
77469;BME280;68840;50.272;12.818;2023-05-16T04:50:07;95658;;;10.4;65.7
77469;BME280;68840;50.272;12.818;2023-05-16T04:52:07;95660;;;10.5;65.5
77469;BME280;68840;50.272;12.818;2023-05-16T04:54:07;95664;;;10.4;65.9
77469;BME280;68840;50.272;12.818;2023-05-16T04:56:06;95666;;;10.4;66.0
77469;BME280;68840;50.272;12.818;2023-05-16T04:58:05;95667;;;10.5;66.0
77469;BME280;68840;50.272;12.818;2023-05-16T05:00:09;95666;;;10.5;66.1
77469;BME280;68840;50.272;12.818;2023-05-16T05:02:06;95665;;;10.5;66.3
77469;BME280;68840;50.272;12.818;2023-05-16T05:04:05;95664;;;10.6;66.4
77469;BME280;68840;50.272;12.818;2023-05-16T05:06:05;95661;;;10.7;66.3
77469;BME280;68840;50.272;12.818;2023-05-16T05:08:06;95660;;;10.6;66.6
77469;BME280;68840;50.272;12.818;2023-05-16T05:10:06;95663;;;10.6;66.8
77469;BME280;68840;50.272;12.818;2023-05-16T05:12:06;95663;;;10.5;67.2
77469;BME280;68840;50.272;12.818;2023-05-16T05:14:05;95663;;;10.4;67.6
77469;BME280;68840;50.272;12.818;2023-05-16T05:16:05;95664;;;10.3;68.0
77469;BME280;68840;50.272;12.818;2023-05-16T05:18:05;95665;;;10.3;68.5
77469;BME280;68840;50.272;12.818;2023-05-16T05:20:06;95664;;;10.4;68.5
77469;BME280;68840;50.272;12.818;2023-05-16T05:22:05;95666;;;10.5;68.1
77469;BME280;68840;50.272;12.818;2023-05-16T05:24:05;95669;;;10.7;67.2
77469;BME280;68840;50.272;12.818;2023-05-16T05:26:06;95672;;;10.8;66.6
77469;BME280;68840;50.272;12.818;2023-05-16T05:28:05;95677;;;11.0;65.6
77469;BME280;68840;50.272;12.818;2023-05-16T05:30:06;95682;;;11.3;65.5
77469;BME280;68840;50.272;12.818;2023-05-16T05:32:06;95685;;;11.6;64.4
77469;BME280;68840;50.272;12.818;2023-05-16T05:34:05;95686;;;11.8;63.4
77469;BME280;68840;50.272;12.818;2023-05-16T05:36:06;95686;;;12.0;63.0
77469;BME280;68840;50.272;12.818;2023-05-16T05:38:05;95683;;;12.2;61.8
77469;BME280;68840;50.272;12.818;2023-05-16T05:40:06;95682;;;12.5;61.1
77469;BME280;68840;50.272;12.818;2023-05-16T05:42:06;95681;;;12.7;60.8
77469;BME280;68840;50.272;12.818;2023-05-16T05:44:05;95680;;;12.9;60.2
77469;BME280;68840;50.272;12.818;2023-05-16T05:46:06;95676;;;13.0;60.0
77469;BME280;68840;50.272;12.818;2023-05-16T05:48:06;95676;;;13.1;59.7
77469;BME280;68840;50.272;12.818;2023-05-16T05:50:06;95675;;;13.0;59.2
77469;BME280;68840;50.272;12.818;2023-05-16T05:52:06;95674;;;12.9;59.9
77469;BME280;68840;50.272;12.818;2023-05-16T05:54:05;95674;;;12.8;60.5
77469;BME280;68840;50.272;12.818;2023-05-16T05:56:05;95674;;;12.7;60.9
77469;BME280;68840;50.272;12.818;2023-05-16T05:58:05;95675;;;12.5;61.2
77469;BME280;68840;50.272;12.818;2023-05-16T06:00:06;95676;;;12.4;61.8
77469;BME280;68840;50.272;12.818;2023-05-16T06:02:06;95678;;;12.2;62.4
77469;BME280;68840;50.272;12.818;2023-05-16T06:04:05;95679;;;12.1;63.0
77469;BME280;68840;50.272;12.818;2023-05-16T06:06:06;95679;;;11.9;64.0
77469;BME280;68840;50.272;12.818;2023-05-16T06:08:05;95679;;;11.8;64.7
77469;BME280;68840;50.272;12.818;2023-05-16T06:10:07;95676;;;11.7;65.9
77469;BME280;68840;50.272;12.818;2023-05-16T06:12:06;95674;;;11.6;65.5
77469;BME280;68840;50.272;12.818;2023-05-16T06:14:06;95673;;;11.6;66.4
77469;BME280;68840;50.272;12.818;2023-05-16T06:16:05;95669;;;11.6;66.6
77469;BME280;68840;50.272;12.818;2023-05-16T06:18:05;95666;;;11.6;67.0
77469;BME280;68840;50.272;12.818;2023-05-16T06:20:06;95663;;;11.6;66.9
77469;BME280;68840;50.272;12.818;2023-05-16T06:22:05;95662;;;11.6;67.1
77469;BME280;68840;50.272;12.818;2023-05-16T06:24:05;95659;;;11.7;67.2
77469;BME280;68840;50.272;12.818;2023-05-16T06:26:05;95658;;;11.7;67.1
77469;BME280;68840;50.272;12.818;2023-05-16T06:28:05;95657;;;11.8;67.0
77469;BME280;68840;50.272;12.818;2023-05-16T06:30:06;95657;;;11.9;68.6
77469;BME280;68840;50.272;12.818;2023-05-16T06:32:05;95652;;;12.0;66.5
77469;BME280;68840;50.272;12.818;2023-05-16T06:34:05;95646;;;12.1;66.0
77469;BME280;68840;50.272;12.818;2023-05-16T06:36:05;95643;;;12.2;64.0
77469;BME280;68840;50.272;12.818;2023-05-16T06:38:05;95647;;;12.2;64.3
77469;BME280;68840;50.272;12.818;2023-05-16T06:40:06;95651;;;12.3;63.5
77469;BME280;68840;50.272;12.818;2023-05-16T06:42:05;95651;;;12.4;63.1
77469;BME280;68840;50.272;12.818;2023-05-16T06:44:05;95649;;;12.5;60.1
77469;BME280;68840;50.272;12.818;2023-05-16T06:46:05;95647;;;12.6;59.0
77469;BME280;68840;50.272;12.818;2023-05-16T06:48:07;95646;;;12.7;59.3
77469;BME280;68840;50.272;12.818;2023-05-16T06:50:06;95646;;;12.8;60.0
77469;BME280;68840;50.272;12.818;2023-05-16T06:52:05;95649;;;12.9;59.0
77469;BME280;68840;50.272;12.818;2023-05-16T06:54:05;95653;;;13.0;58.9
77469;BME280;68840;50.272;12.818;2023-05-16T06:56:05;95655;;;13.1;58.3
77469;BME280;68840;50.272;12.818;2023-05-16T06:58:05;95655;;;13.2;58.0
77469;BME280;68840;50.272;12.818;2023-05-16T07:00:06;95653;;;13.3;58.8
77469;BME280;68840;50.272;12.818;2023-05-16T07:02:05;95652;;;13.5;59.5
77469;BME280;68840;50.272;12.818;2023-05-16T07:04:06;95654;;;13.6;60.2
77469;BME280;68840;50.272;12.818;2023-05-16T07:06:05;95655;;;13.7;59.4
77469;BME280;68840;50.272;12.818;2023-05-16T07:08:05;95657;;;13.7;58.4
77469;BME280;68840;50.272;12.818;2023-05-16T07:10:05;95659;;;13.8;59.4
77469;BME280;68840;50.272;12.818;2023-05-16T07:12:05;95658;;;13.9;59.6
77469;BME280;68840;50.272;12.818;2023-05-16T07:14:05;95657;;;14.0;58.8
77469;BME280;68840;50.272;12.818;2023-05-16T07:16:07;95653;;;14.1;58.8
77469;BME280;68840;50.272;12.818;2023-05-16T07:18:05;95654;;;14.1;61.0
77469;BME280;68840;50.272;12.818;2023-05-16T07:20:07;95657;;;14.2;60.4
77469;BME280;68840;50.272;12.818;2023-05-16T07:22:06;95656;;;14.3;60.3
77469;BME280;68840;50.272;12.818;2023-05-16T07:24:06;95650;;;14.3;59.1
77469;BME280;68840;50.272;12.818;2023-05-16T07:26:05;95645;;;14.4;59.1
77469;BME280;68840;50.272;12.818;2023-05-16T07:28:05;95642;;;14.4;60.5
77469;BME280;68840;50.272;12.818;2023-05-16T07:30:07;95642;;;14.5;58.6
77469;BME280;68840;50.272;12.818;2023-05-16T07:32:06;95646;;;14.5;59.9
77469;BME280;68840;50.272;12.818;2023-05-16T07:34:05;95648;;;14.6;58.4
77469;BME280;68840;50.272;12.818;2023-05-16T07:36:06;95648;;;14.6;61.1
77469;BME280;68840;50.272;12.818;2023-05-16T07:38:05;95648;;;14.7;58.5
77469;BME280;68840;50.272;12.818;2023-05-16T07:40:06;95647;;;14.8;58.6
77469;BME280;68840;50.272;12.818;2023-05-16T07:42:06;95651;;;14.9;60.8
77469;BME280;68840;50.272;12.818;2023-05-16T07:44:05;95652;;;15.0;61.3
77469;BME280;68840;50.272;12.818;2023-05-16T07:46:05;95655;;;15.1;60.5
77469;BME280;68840;50.272;12.818;2023-05-16T07:48:06;95658;;;15.2;57.0
77469;BME280;68840;50.272;12.818;2023-05-16T07:50:06;95661;;;15.2;55.3
77469;BME280;68840;50.272;12.818;2023-05-16T07:52:06;95661;;;15.3;53.5
77469;BME280;68840;50.272;12.818;2023-05-16T07:54:06;95669;;;15.4;56.2
77469;BME280;68840;50.272;12.818;2023-05-16T07:56:06;95674;;;15.5;53.9
77469;BME280;68840;50.272;12.818;2023-05-16T07:58:05;95677;;;15.5;53.9
77469;BME280;68840;50.272;12.818;2023-05-16T08:00:06;95679;;;15.5;53.0
77469;BME280;68840;50.272;12.818;2023-05-16T08:02:06;95682;;;15.5;52.7
77469;BME280;68840;50.272;12.818;2023-05-16T08:04:06;95686;;;15.5;54.5
77469;BME280;68840;50.272;12.818;2023-05-16T08:06:05;95689;;;15.5;52.7
77469;BME280;68840;50.272;12.818;2023-05-16T08:08:05;95692;;;15.5;54.0
77469;BME280;68840;50.272;12.818;2023-05-16T08:10:06;95695;;;15.6;54.7
77469;BME280;68840;50.272;12.818;2023-05-16T08:12:06;95697;;;15.6;52.7
77469;BME280;68840;50.272;12.818;2023-05-16T08:14:05;95699;;;15.6;53.0
77469;BME280;68840;50.272;12.818;2023-05-16T08:16:05;95703;;;15.6;53.2
77469;BME280;68840;50.272;12.818;2023-05-16T08:18:11;95705;;;15.6;52.8
77469;BME280;68840;50.272;12.818;2023-05-16T08:20:06;95707;;;15.7;51.9
77469;BME280;68840;50.272;12.818;2023-05-16T08:22:06;95712;;;15.7;54.2
77469;BME280;68840;50.272;12.818;2023-05-16T08:24:06;95718;;;15.8;53.9
77469;BME280;68840;50.272;12.818;2023-05-16T08:26:05;95720;;;15.9;55.8
77469;BME280;68840;50.272;12.818;2023-05-16T08:28:05;95730;;;16.1;53.1
77469;BME280;68840;50.272;12.818;2023-05-16T08:30:07;95732;;;16.2;53.5
77469;BME280;68840;50.272;12.818;2023-05-16T08:32:07;95726;;;16.2;51.7
77469;BME280;68840;50.272;12.818;2023-05-16T08:34:05;95732;;;16.2;53.1
77469;BME280;68840;50.272;12.818;2023-05-16T08:36:05;95739;;;16.2;54.2
77469;BME280;68840;50.272;12.818;2023-05-16T08:38:06;95744;;;16.2;54.1
77469;BME280;68840;50.272;12.818;2023-05-16T08:40:09;95745;;;16.2;52.7
77469;BME280;68840;50.272;12.818;2023-05-16T08:42:06;95742;;;16.2;55.1
77469;BME280;68840;50.272;12.818;2023-05-16T08:44:05;95741;;;16.2;54.1
77469;BME280;68840;50.272;12.818;2023-05-16T08:46:06;95742;;;16.2;56.9
77469;BME280;68840;50.272;12.818;2023-05-16T08:48:06;95741;;;16.4;54.6
77469;BME280;68840;50.272;12.818;2023-05-16T08:50:08;95739;;;16.6;55.0
77469;BME280;68840;50.272;12.818;2023-05-16T08:52:07;95736;;;16.7;52.7
77469;BME280;68840;50.272;12.818;2023-05-16T08:54:11;95737;;;16.9;56.0
77469;BME280;68840;50.272;12.818;2023-05-16T08:56:06;95737;;;17.1;56.6
77469;BME280;68840;50.272;12.818;2023-05-16T08:58:06;95741;;;17.2;52.5
77469;BME280;68840;50.272;12.818;2023-05-16T09:00:11;95744;;;17.4;51.9
77469;BME280;68840;50.272;12.818;2023-05-16T09:02:05;95746;;;17.4;50.3
77469;BME280;68840;50.272;12.818;2023-05-16T09:04:07;95749;;;17.4;49.7
77469;BME280;68840;50.272;12.818;2023-05-16T09:06:05;95752;;;17.3;49.1
77469;BME280;68840;50.272;12.818;2023-05-16T09:08:05;95756;;;17.2;49.6
77469;BME280;68840;50.272;12.818;2023-05-16T09:10:06;95759;;;17.2;49.3
77469;BME280;68840;50.272;12.818;2023-05-16T09:12:06;95757;;;17.1;49.0
77469;BME280;68840;50.272;12.818;2023-05-16T09:14:05;95756;;;16.9;50.7
77469;BME280;68840;50.272;12.818;2023-05-16T09:16:07;95763;;;16.8;49.2
77469;BME280;68840;50.272;12.818;2023-05-16T09:18:10;95766;;;16.7;49.4
77469;BME280;68840;50.272;12.818;2023-05-16T09:20:10;95764;;;16.5;48.9
77469;BME280;68840;50.272;12.818;2023-05-16T09:22:08;95765;;;16.3;49.6
77469;BME280;68840;50.272;12.818;2023-05-16T09:24:07;95765;;;16.2;52.2
77469;BME280;68840;50.272;12.818;2023-05-16T09:26:07;95767;;;16.2;50.9
77469;BME280;68840;50.272;12.818;2023-05-16T09:28:09;95773;;;16.2;51.4
77469;BME280;68840;50.272;12.818;2023-05-16T09:30:06;95778;;;16.3;51.8
77469;BME280;68840;50.272;12.818;2023-05-16T09:32:11;95783;;;16.3;51.9
77469;BME280;68840;50.272;12.818;2023-05-16T09:34:07;95790;;;16.4;51.5
77469;BME280;68840;50.272;12.818;2023-05-16T09:36:06;95795;;;16.5;52.1
77469;BME280;68840;50.272;12.818;2023-05-16T09:38:13;95802;;;16.5;51.9
77469;BME280;68840;50.272;12.818;2023-05-16T09:40:06;95800;;;16.6;50.3
77469;BME280;68840;50.272;12.818;2023-05-16T09:42:06;95800;;;16.5;51.7
77469;BME280;68840;50.272;12.818;2023-05-16T09:44:05;95795;;;16.4;50.3
77469;BME280;68840;50.272;12.818;2023-05-16T09:46:05;95790;;;16.3;50.1
77469;BME280;68840;50.272;12.818;2023-05-16T09:48:07;95790;;;16.2;50.2
77469;BME280;68840;50.272;12.818;2023-05-16T09:50:06;95792;;;16.1;51.5
77469;BME280;68840;50.272;12.818;2023-05-16T09:52:05;95792;;;16.1;51.1
77469;BME280;68840;50.272;12.818;2023-05-16T09:54:06;95789;;;16.0;52.7
77469;BME280;68840;50.272;12.818;2023-05-16T09:56:09;95793;;;16.0;50.7
77469;BME280;68840;50.272;12.818;2023-05-16T09:58:05;95794;;;16.0;51.8
77469;BME280;68840;50.272;12.818;2023-05-16T10:00:09;95792;;;15.9;51.0
77469;BME280;68840;50.272;12.818;2023-05-16T10:02:06;95791;;;15.8;51.9
77469;BME280;68840;50.272;12.818;2023-05-16T10:04:06;95789;;;15.7;52.0
77469;BME280;68840;50.272;12.818;2023-05-16T10:06:06;95787;;;15.6;52.8
77469;BME280;68840;50.272;12.818;2023-05-16T10:08:06;95784;;;15.6;53.1
77469;BME280;68840;50.272;12.818;2023-05-16T10:10:07;95786;;;15.6;55.6
77469;BME280;68840;50.272;12.818;2023-05-16T10:12:07;95783;;;15.7;54.8
77469;BME280;68840;50.272;12.818;2023-05-16T10:14:06;95783;;;15.8;55.8
77469;BME280;68840;50.272;12.818;2023-05-16T10:16:07;95781;;;15.9;53.0
77469;BME280;68840;50.272;12.818;2023-05-16T10:18:10;95772;;;15.9;51.2
77469;BME280;68840;50.272;12.818;2023-05-16T10:20:08;95770;;;15.9;51.8
77469;BME280;68840;50.272;12.818;2023-05-16T10:22:06;95766;;;16.0;51.8
77469;BME280;68840;50.272;12.818;2023-05-16T10:24:06;95764;;;16.0;51.6
77469;BME280;68840;50.272;12.818;2023-05-16T10:26:06;95764;;;16.1;56.8
77469;BME280;68840;50.272;12.818;2023-05-16T10:28:06;95769;;;16.3;58.0
77469;BME280;68840;50.272;12.818;2023-05-16T10:30:07;95773;;;16.5;55.4
77469;BME280;68840;50.272;12.818;2023-05-16T10:32:06;95770;;;16.7;55.2
77469;BME280;68840;50.272;12.818;2023-05-16T10:34:05;95768;;;16.9;51.0
77469;BME280;68840;50.272;12.818;2023-05-16T10:36:07;95765;;;17.0;50.7
77469;BME280;68840;50.272;12.818;2023-05-16T10:38:06;95760;;;17.1;49.6
77469;BME280;68840;50.272;12.818;2023-05-16T10:40:07;95753;;;17.1;52.2
77469;BME280;68840;50.272;12.818;2023-05-16T10:42:06;95747;;;17.2;53.8
77469;BME280;68840;50.272;12.818;2023-05-16T10:44:12;95742;;;17.3;51.3
77469;BME280;68840;50.272;12.818;2023-05-16T10:46:09;95744;;;17.4;49.9
77469;BME280;68840;50.272;12.818;2023-05-16T10:48:09;95746;;;17.5;48.2
77469;BME280;68840;50.272;12.818;2023-05-16T10:50:06;95749;;;17.5;50.2
77469;BME280;68840;50.272;12.818;2023-05-16T10:52:08;95751;;;17.6;47.6
77469;BME280;68840;50.272;12.818;2023-05-16T10:54:08;95755;;;17.5;48.4
77469;BME280;68840;50.272;12.818;2023-05-16T10:56:08;95756;;;17.5;49.8
77469;BME280;68840;50.272;12.818;2023-05-16T10:58:07;95761;;;17.6;49.2
77469;BME280;68840;50.272;12.818;2023-05-16T11:00:07;95763;;;17.6;52.8
77469;BME280;68840;50.272;12.818;2023-05-16T11:02:23;95768;;;17.7;52.1
77469;BME280;68840;50.272;12.818;2023-05-16T11:04:08;95769;;;17.8;49.7
77469;BME280;68840;50.272;12.818;2023-05-16T11:06:05;95770;;;17.9;49.0
77469;BME280;68840;50.272;12.818;2023-05-16T11:08:05;95769;;;17.9;49.2
77469;BME280;68840;50.272;12.818;2023-05-16T11:10:07;95771;;;18.0;48.4
77469;BME280;68840;50.272;12.818;2023-05-16T11:12:08;95775;;;18.0;50.1
77469;BME280;68840;50.272;12.818;2023-05-16T11:14:05;95776;;;18.0;49.4